Terminal Aerodrome Forecast
Issued by NWS

Home | Current Version | Previous Version | Text Only | Print | Product List | Glossary On
Versions: 1 2 3 4 5 6 7 8 9 10 11 12 13 14 15 16
000
FTUS44 KCRP 201100
TAFLRD
TAF
KLRD 201132Z 2012/2112 12006KT P6SM SCT012 BKN100
      TEMPO 2012/2014 BKN012
     FM201500 15008KT P6SM SCT025 BKN150
     FM202000 12012KT P6SM VCTS SCT040CB
     FM210300 11008KT P6SM SCT040=

USA.gov is the U.S. government's official web portal to all federal, state and local government web resources and services.